Time;durP1;ratioP1;P1;durP2;ratioP2;P2;SDS_P1;SDS_P2;PMS_P1;PMS_P2;Temp;Humidity;BMP_temperature;BMP_pressure;BME280_temperature;BME280_humidity;BME280_pressure;Samples;Min_cycle;Max_cycle;Signal;HPM_P1;HPM_P2
2022/10/20 00:00:09;;;;;;;7.17;4.77;;;;;;;;;;6622474;28;20258;-84
2022/10/20 00:03:19;;;;;;;8.47;5.50;;;;;;;;;;6622472;28;20168;-84
2022/10/20 00:06:31;;;;;;;10.90;6.30;;;;;;;;;;6622496;28;20172;-84
2022/10/20 00:09:41;;;;;;;9.10;5.57;;;;;;;;;;6622096;28;20546;-82
2022/10/20 00:12:52;;;;;;;9.57;6.67;;;;;;;;;;6622408;28;20258;-83
2022/10/20 00:16:02;;;;;;;7.83;5.40;;;;;;;;;;6622030;28;20174;-83
2022/10/20 00:19:12;;;;;;;6.90;5.57;;;;;;;;;;6622265;28;20517;-82
2022/10/20 00:22:23;;;;;;;9.37;5.40;;;;;;;;;;6625895;28;20621;-82
2022/10/20 00:25:33;;;;;;;7.20;5.13;;;;;;;;;;6627393;28;20171;-84
2022/10/20 00:28:44;;;;;;;5.77;4.63;;;;;;;;;;6627681;28;20168;-85
2022/10/20 00:31:54;;;;;;;6.60;4.90;;;;;;;;;;6627910;28;20621;-84
2022/10/20 00:35:06;;;;;;;9.40;5.10;;;;;;;;;;6627439;28;20175;-84
2022/10/20 00:38:16;;;;;;;7.20;4.90;;;;;;;;;;6627431;28;20197;-84
2022/10/20 00:41:27;;;;;;;8.20;4.87;;;;;;;;;;6627197;28;20195;-84
2022/10/20 00:44:49;;;;;;;6.03;4.70;;;;;;;;;;6626867;28;20171;-84
2022/10/20 00:48:03;;;;;;;6.13;4.60;;;;;;;;;;6626795;28;20164;-84
2022/10/20 00:51:15;;;;;;;7.53;4.33;;;;;;;;;;6626696;28;20176;-84
2022/10/20 00:54:25;;;;;;;6.83;4.80;;;;;;;;;;6626564;28;20199;-84
2022/10/20 00:57:37;;;;;;;5.57;4.57;;;;;;;;;;6626848;28;20569;-84
2022/10/20 01:00:49;;;;;;;7.33;4.80;;;;;;;;;;6627114;28;20291;-84
2022/10/20 01:04:00;;;;;;;6.57;5.00;;;;;;;;;;6626736;28;20600;-84
2022/10/20 01:07:10;;;;;;;6.60;4.60;;;;;;;;;;6626665;28;20186;-84
2022/10/20 01:10:22;;;;;;;8.07;5.17;;;;;;;;;;6626241;28;20172;-84
2022/10/20 01:13:35;;;;;;;7.57;5.03;;;;;;;;;;6626545;28;20503;-84
2022/10/20 01:16:50;;;;;;;5.70;4.90;;;;;;;;;;6626498;28;20259;-84
2022/10/20 01:20:03;;;;;;;6.70;5.20;;;;;;;;;;6625891;28;20219;-84
2022/10/20 01:23:28;;;;;;;5.13;4.33;;;;;;;;;;6626321;28;20171;-84
2022/10/20 01:26:48;;;;;;;5.90;4.77;;;;;;;;;;6625850;28;20168;-84
2022/10/20 01:30:02;;;;;;;7.40;4.70;;;;;;;;;;6626861;28;20175;-85
2022/10/20 01:33:29;;;;;;;5.07;4.57;;;;;;;;;;6626102;28;20172;-84
2022/10/20 01:36:44;;;;;;;6.90;5.27;;;;;;;;;;6625966;28;20166;-84
2022/10/20 01:40:01;;;;;;;7.90;5.10;;;;;;;;;;6626577;28;20279;-84
2022/10/20 01:43:12;;;;;;;7.93;5.00;;;;;;;;;;6608861;28;20183;-84
2022/10/20 01:46:24;;;;;;;8.13;4.80;;;;;;;;;;6626070;28;20175;-84
2022/10/20 01:49:35;;;;;;;7.33;5.20;;;;;;;;;;6625514;28;20226;-84
2022/10/20 01:52:45;;;;;;;8.63;5.10;;;;;;;;;;6625543;28;20624;-84
2022/10/20 01:55:57;;;;;;;7.00;5.50;;;;;;;;;;6625782;28;20223;-83
2022/10/20 01:59:14;;;;;;;9.97;5.70;;;;;;;;;;6625306;28;20550;-83
2022/10/20 02:02:42;;;;;;;6.53;5.03;;;;;;;;;;6625760;28;20496;-83
2022/10/20 02:06:02;;;;;;;10.40;5.80;;;;;;;;;;6625932;28;20168;-83
2022/10/20 02:09:15;;;;;;;8.13;5.63;;;;;;;;;;6625088;28;20175;-83
2022/10/20 02:12:31;;;;;;;6.73;5.27;;;;;;;;;;6625071;28;20176;-83
2022/10/20 02:15:52;;;;;;;8.27;5.60;;;;;;;;;;6626208;28;20505;-83
2022/10/20 02:19:04;;;;;;;7.43;5.50;;;;;;;;;;6608097;28;20601;-83
2022/10/20 02:22:15;;;;;;;10.03;5.90;;;;;;;;;;6624898;28;20163;-83
2022/10/20 02:25:27;;;;;;;7.70;6.10;;;;;;;;;;6624723;28;20179;-83
2022/10/20 02:28:39;;;;;;;9.47;5.83;;;;;;;;;;6624712;28;20168;-83
2022/10/20 02:31:50;;;;;;;8.17;5.40;;;;;;;;;;6624225;28;20527;-83
2022/10/20 02:35:04;;;;;;;8.90;6.30;;;;;;;;;;6624506;28;20258;-83
2022/10/20 02:38:15;;;;;;;10.43;6.07;;;;;;;;;;6624388;28;20175;-83
2022/10/20 02:41:25;;;;;;;10.47;6.13;;;;;;;;;;6624659;28;20519;-83
2022/10/20 02:44:35;;;;;;;9.87;6.33;;;;;;;;;;6623736;28;20168;-82
2022/10/20 02:47:46;;;;;;;10.53;6.93;;;;;;;;;;6624899;28;20187;-82
2022/10/20 02:50:56;;;;;;;13.83;8.67;;;;;;;;;;6624146;28;20536;-82
2022/10/20 02:54:06;;;;;;;15.23;9.23;;;;;;;;;;6624334;28;20171;-82
2022/10/20 02:57:17;;;;;;;10.97;7.60;;;;;;;;;;6605732;28;20684;-82
2022/10/20 03:00:29;;;;;;;10.80;7.33;;;;;;;;;;6623767;28;20338;-82
2022/10/20 03:03:40;;;;;;;10.83;7.37;;;;;;;;;;6623743;28;20176;-82
2022/10/20 03:06:50;;;;;;;9.03;7.13;;;;;;;;;;6605843;28;20248;-81
2022/10/20 03:10:00;;;;;;;10.33;7.30;;;;;;;;;;6623595;28;20570;-82
2022/10/20 03:13:13;;;;;;;12.43;8.60;;;;;;;;;;6623843;28;20176;-82
2022/10/20 03:16:23;;;;;;;11.83;8.37;;;;;;;;;;6624184;28;20262;-82
2022/10/20 03:19:33;;;;;;;10.73;7.33;;;;;;;;;;6623946;28;20227;-82
2022/10/20 03:22:44;;;;;;;14.63;8.80;;;;;;;;;;6623121;28;20651;-82
2022/10/20 03:25:59;;;;;;;10.83;7.20;;;;;;;;;;6623587;28;20176;-83
2022/10/20 03:29:10;;;;;;;13.23;9.07;;;;;;;;;;6623458;28;20351;-82
2022/10/20 03:32:20;;;;;;;10.50;8.10;;;;;;;;;;6623309;28;20175;-82
2022/10/20 03:35:30;;;;;;;12.90;8.30;;;;;;;;;;6622994;28;20164;-82
2022/10/20 03:38:42;;;;;;;11.60;7.43;;;;;;;;;;6622923;28;20596;-82
2022/10/20 03:41:53;;;;;;;12.40;7.73;;;;;;;;;;6622785;28;20199;-82
2022/10/20 03:45:03;;;;;;;13.00;8.57;;;;;;;;;;6622916;28;20168;-82
2022/10/20 03:48:13;;;;;;;14.03;7.87;;;;;;;;;;6623164;28;20206;-84
2022/10/20 03:51:24;;;;;;;12.43;8.43;;;;;;;;;;6623091;28;20199;-82
2022/10/20 03:54:35;;;;;;;14.40;9.33;;;;;;;;;;6622356;28;20168;-83
2022/10/20 03:57:45;;;;;;;13.97;9.53;;;;;;;;;;6622956;28;20223;-82
2022/10/20 04:00:56;;;;;;;14.07;10.00;;;;;;;;;;6622114;28;20310;-82
2022/10/20 04:04:06;;;;;;;16.10;10.93;;;;;;;;;;6622498;28;20589;-82
2022/10/20 04:07:17;;;;;;;17.13;10.67;;;;;;;;;;6622468;28;20167;-82
2022/10/20 04:10:27;;;;;;;16.23;10.40;;;;;;;;;;6622403;28;20546;-83
2022/10/20 04:13:37;;;;;;;14.33;9.60;;;;;;;;;;6622399;28;20171;-82
2022/10/20 04:16:48;;;;;;;14.83;9.63;;;;;;;;;;6621939;28;20250;-82
2022/10/20 04:19:58;;;;;;;17.37;10.23;;;;;;;;;;6605011;28;20200;-83
2022/10/20 04:23:08;;;;;;;23.80;14.13;;;;;;;;;;6622573;28;20168;-83
2022/10/20 04:26:19;;;;;;;33.80;19.07;;;;;;;;;;6622117;28;20255;-83
2022/10/20 04:29:29;;;;;;;33.97;18.07;;;;;;;;;;6622110;28;20179;-83
2022/10/20 04:32:39;;;;;;;33.17;19.13;;;;;;;;;;6623198;28;20175;-83
2022/10/20 04:35:55;;;;;;;31.20;19.13;;;;;;;;;;6622738;28;20194;-83
2022/10/20 04:39:06;;;;;;;28.77;17.63;;;;;;;;;;6622017;28;20168;-83
2022/10/20 04:42:17;;;;;;;27.07;15.43;;;;;;;;;;6622087;28;20183;-83
2022/10/20 04:45:27;;;;;;;23.10;15.13;;;;;;;;;;6621595;28;20176;-83
2022/10/20 04:48:40;;;;;;;22.10;14.07;;;;;;;;;;6621898;28;20551;-83
2022/10/20 04:51:51;;;;;;;23.63;16.27;;;;;;;;;;6621841;28;20198;-82
2022/10/20 04:55:01;;;;;;;26.07;16.73;;;;;;;;;;6621773;28;20507;-82
2022/10/20 04:58:11;;;;;;;24.10;14.60;;;;;;;;;;6621840;28;20231;-83
2022/10/20 05:01:23;;;;;;;20.50;12.50;;;;;;;;;;6621684;28;20191;-82
2022/10/20 05:04:33;;;;;;;23.80;13.37;;;;;;;;;;6622154;28;20174;-82
2022/10/20 05:07:44;;;;;;;29.77;15.23;;;;;;;;;;6622891;28;20172;-82
2022/10/20 05:10:54;;;;;;;25.50;15.83;;;;;;;;;;6626941;28;20184;-83
2022/10/20 05:14:04;;;;;;;29.40;17.37;;;;;;;;;;6626456;28;20563;-82
2022/10/20 05:17:15;;;;;;;30.00;16.83;;;;;;;;;;6626940;28;20168;-82
2022/10/20 05:20:25;;;;;;;28.23;16.73;;;;;;;;;;6626329;28;20671;-83
2022/10/20 05:23:36;;;;;;;28.53;17.13;;;;;;;;;;6626030;28;20168;-83
2022/10/20 05:26:46;;;;;;;29.20;16.20;;;;;;;;;;6626647;28;20551;-83
2022/10/20 05:29:57;;;;;;;28.77;16.67;;;;;;;;;;6625894;28;20179;-83
2022/10/20 05:33:07;;;;;;;30.33;17.50;;;;;;;;;;6625759;28;20175;-82
2022/10/20 05:36:19;;;;;;;25.83;14.43;;;;;;;;;;6626061;28;20583;-83
2022/10/20 05:39:29;;;;;;;23.07;13.47;;;;;;;;;;6625562;28;20231;-82
2022/10/20 05:42:39;;;;;;;22.27;12.93;;;;;;;;;;6625567;28;20217;-82
2022/10/20 05:45:53;;;;;;;22.10;12.87;;;;;;;;;;6625506;28;20651;-81
2022/10/20 05:49:04;;;;;;;21.50;14.20;;;;;;;;;;6626771;28;20171;-81
2022/10/20 05:52:14;;;;;;;22.83;14.00;;;;;;;;;;6607881;28;20175;-82
2022/10/20 05:55:24;;;;;;;19.63;12.23;;;;;;;;;;6625008;28;20198;-83
2022/10/20 05:58:35;;;;;;;18.03;12.63;;;;;;;;;;6624998;28;20192;-82
2022/10/20 06:01:48;;;;;;;20.87;11.57;;;;;;;;;;6625582;28;20204;-82
2022/10/20 06:04:59;;;;;;;16.87;11.70;;;;;;;;;;6624892;28;20258;-82
2022/10/20 06:08:09;;;;;;;24.07;14.30;;;;;;;;;;6625566;28;20631;-82
2022/10/20 06:11:20;;;;;;;20.27;13.97;;;;;;;;;;6624903;28;20172;-81
2022/10/20 06:14:30;;;;;;;20.17;14.27;;;;;;;;;;6624356;28;20180;-82
2022/10/20 06:17:40;;;;;;;24.03;16.57;;;;;;;;;;6624460;28;20259;-84
2022/10/20 06:20:57;;;;;;;17.50;13.50;;;;;;;;;;6623410;28;20219;-83
2022/10/20 06:24:09;;;;;;;15.90;12.23;;;;;;;;;;6624989;28;20239;-82
2022/10/20 06:27:19;;;;;;;14.50;10.97;;;;;;;;;;6607923;28;20619;-82
2022/10/20 06:30:29;;;;;;;11.53;10.00;;;;;;;;;;6624288;28;20183;-83
2022/10/20 06:33:40;;;;;;;10.67;8.70;;;;;;;;;;6624139;28;20632;-84
2022/10/20 06:36:51;;;;;;;14.10;8.20;;;;;;;;;;6606524;28;20182;-84
2022/10/20 06:40:01;;;;;;;9.80;8.03;;;;;;;;;;6624600;28;20207;-83
2022/10/20 06:43:11;;;;;;;11.00;7.90;;;;;;;;;;6624258;28;20174;-83
2022/10/20 06:46:22;;;;;;;10.60;7.87;;;;;;;;;;6625330;28;20527;-83
2022/10/20 06:49:32;;;;;;;9.93;7.50;;;;;;;;;;6623837;28;20172;-83
2022/10/20 06:52:43;;;;;;;10.70;8.03;;;;;;;;;;6623805;28;20191;-83
2022/10/20 06:56:07;;;;;;;11.50;8.97;;;;;;;;;;6606523;28;20227;-83
2022/10/20 06:59:17;;;;;;;13.20;8.70;;;;;;;;;;6624189;28;20555;-82
2022/10/20 07:02:27;;;;;;;9.30;8.17;;;;;;;;;;6624231;28;20229;-83
2022/10/20 07:05:38;;;;;;;14.27;9.70;;;;;;;;;;6624130;28;20172;-83
2022/10/20 07:08:49;;;;;;;10.50;9.37;;;;;;;;;;6623130;28;20179;-82
2022/10/20 07:12:00;;;;;;;11.13;9.43;;;;;;;;;;6623297;28;20258;-83
2022/10/20 07:15:11;;;;;;;10.37;9.23;;;;;;;;;;6624316;28;20647;-82
2022/10/20 07:18:21;;;;;;;13.23;10.93;;;;;;;;;;6623100;28;20175;-82
2022/10/20 07:21:32;;;;;;;13.63;11.83;;;;;;;;;;6605432;28;20305;-84
2022/10/20 07:24:42;;;;;;;11.33;10.00;;;;;;;;;;6623052;28;20172;-83
2022/10/20 07:27:53;;;;;;;11.33;9.17;;;;;;;;;;6623167;28;20195;-82
2022/10/20 07:31:09;;;;;;;12.23;9.87;;;;;;;;;;6622575;28;20183;-83
2022/10/20 07:34:22;;;;;;;11.87;9.97;;;;;;;;;;6622985;28;20187;-83
2022/10/20 07:37:32;;;;;;;12.10;10.13;;;;;;;;;;6623299;28;20176;-83
2022/10/20 07:40:42;;;;;;;12.40;10.43;;;;;;;;;;6622981;28;20548;-83
2022/10/20 07:43:53;;;;;;;15.17;12.63;;;;;;;;;;6623249;28;20199;-83
2022/10/20 07:47:03;;;;;;;13.93;11.13;;;;;;;;;;6623549;28;20671;-84
2022/10/20 07:50:14;;;;;;;10.97;9.83;;;;;;;;;;6622351;28;20171;-84
2022/10/20 07:53:26;;;;;;;9.90;8.13;;;;;;;;;;6623015;28;20226;-83
2022/10/20 07:56:37;;;;;;;9.67;8.23;;;;;;;;;;6621967;28;20222;-84
2022/10/20 07:59:48;;;;;;;8.83;7.83;;;;;;;;;;6622098;28;20668;-84
2022/10/20 08:02:58;;;;;;;10.10;7.20;;;;;;;;;;6622163;28;20274;-84
2022/10/20 08:06:08;;;;;;;11.80;7.33;;;;;;;;;;6622443;28;20175;-84
2022/10/20 08:09:19;;;;;;;10.93;7.87;;;;;;;;;;6622022;28;20171;-83
2022/10/20 08:12:29;;;;;;;11.43;8.80;;;;;;;;;;6622768;28;20278;-85
2022/10/20 08:15:39;;;;;;;9.57;8.10;;;;;;;;;;6622358;28;20175;-84
2022/10/20 08:18:50;;;;;;;8.07;7.27;;;;;;;;;;6622830;28;20591;-83
2022/10/20 08:22:00;;;;;;;9.83;8.83;;;;;;;;;;6604227;28;20219;-83
2022/10/20 08:25:13;;;;;;;10.23;9.13;;;;;;;;;;6622230;28;20171;-83
2022/10/20 08:28:23;;;;;;;8.67;7.77;;;;;;;;;;6622555;28;20168;-83
2022/10/20 08:31:34;;;;;;;8.80;7.87;;;;;;;;;;6604408;28;20271;-83
2022/10/20 08:34:45;;;;;;;8.57;6.97;;;;;;;;;;6604256;28;20180;-83
2022/10/20 08:37:55;;;;;;;9.83;7.93;;;;;;;;;;6604212;28;20201;-83
2022/10/20 08:41:12;;;;;;;11.10;9.23;;;;;;;;;;6622775;28;20548;-83
2022/10/20 08:44:28;;;;;;;12.70;9.90;;;;;;;;;;6626969;28;20247;-83
2022/10/20 08:47:38;;;;;;;11.50;10.10;;;;;;;;;;6609422;28;20628;-83
2022/10/20 08:50:50;;;;;;;9.23;8.23;;;;;;;;;;6626870;28;20175;-84
2022/10/20 08:54:01;;;;;;;11.60;8.33;;;;;;;;;;6627859;28;20167;-84
2022/10/20 08:57:28;;;;;;;10.17;9.13;;;;;;;;;;6626610;28;20270;-83
2022/10/20 09:00:39;;;;;;;10.90;9.73;;;;;;;;;;6627216;28;20199;-84
2022/10/20 09:04:02;;;;;;;12.13;10.30;;;;;;;;;;6626859;28;20187;-83
2022/10/20 09:07:32;;;;;;;12.33;9.93;;;;;;;;;;6626804;28;20176;-82
2022/10/20 09:10:46;;;;;;;11.23;9.40;;;;;;;;;;6626190;28;20195;-81
2022/10/20 09:13:56;;;;;;;13.57;10.67;;;;;;;;;;6626599;28;20167;-81
2022/10/20 09:17:13;;;;;;;10.93;9.47;;;;;;;;;;6626511;28;20206;-80
2022/10/20 09:20:26;;;;;;;11.10;9.47;;;;;;;;;;6625572;28;20184;-81
2022/10/20 09:23:41;;;;;;;11.63;10.03;;;;;;;;;;6626419;28;20310;-80
2022/10/20 09:26:52;;;;;;;14.80;10.40;;;;;;;;;;6626971;28;20286;-80
2022/10/20 09:30:34;;;;;;;9.70;8.70;;;;;;;;;;6626270;28;20171;-81
2022/10/20 09:33:46;;;;;;;11.73;9.00;;;;;;;;;;6610632;28;20187;-81
2022/10/20 09:37:08;;;;;;;9.93;8.20;;;;;;;;;;6625691;28;20207;-81
2022/10/20 09:40:18;;;;;;;12.07;8.70;;;;;;;;;;6625968;28;20192;-81
2022/10/20 09:43:29;;;;;;;10.53;9.40;;;;;;;;;;6625563;28;20213;-81
2022/10/20 09:46:47;;;;;;;11.13;8.93;;;;;;;;;;6607959;28;20171;-81
2022/10/20 09:49:59;;;;;;;11.20;9.57;;;;;;;;;;6625701;28;20168;-81
2022/10/20 09:53:16;;;;;;;13.83;9.87;;;;;;;;;;6625465;28;20190;-81
2022/10/20 09:56:37;;;;;;;12.67;9.83;;;;;;;;;;6608034;28;20275;-81
2022/10/20 09:59:49;;;;;;;14.40;10.30;;;;;;;;;;6625314;28;20203;-81
2022/10/20 10:03:20;;;;;;;11.10;8.40;;;;;;;;;;6624995;28;20179;-81
2022/10/20 10:06:30;;;;;;;14.03;10.37;;;;;;;;;;6625705;28;20198;-81
2022/10/20 10:09:49;;;;;;;10.53;8.37;;;;;;;;;;6625264;28;20172;-81
2022/10/20 10:13:00;;;;;;;11.83;9.93;;;;;;;;;;6625585;28;20157;-81
2022/10/20 10:16:15;;;;;;;11.43;8.40;;;;;;;;;;6625448;28;20298;-81
2022/10/20 10:19:27;;;;;;;11.00;8.23;;;;;;;;;;6626050;28;20512;-81
2022/10/20 10:22:38;;;;;;;10.83;7.83;;;;;;;;;;6624484;28;20172;-80
2022/10/20 10:25:48;;;;;;;6.60;5.73;;;;;;;;;;6624864;28;20262;-81
2022/10/20 10:28:59;;;;;;;7.53;6.27;;;;;;;;;;6625171;28;20179;-81
2022/10/20 10:32:17;;;;;;;5.13;4.60;;;;;;;;;;6624362;28;20613;-81
2022/10/20 10:35:32;;;;;;;5.40;4.40;;;;;;;;;;6624647;28;20168;-81
2022/10/20 10:38:42;;;;;;;7.60;6.17;;;;;;;;;;6624185;28;20263;-81
2022/10/20 10:42:11;;;;;;;8.77;6.20;;;;;;;;;;6624422;28;20559;-81
2022/10/20 10:45:30;;;;;;;7.17;4.90;;;;;;;;;;6624028;28;20218;-81
2022/10/20 10:48:46;;;;;;;7.20;4.90;;;;;;;;;;6625383;28;20198;-81
2022/10/20 10:51:57;;;;;;;5.13;4.13;;;;;;;;;;6624151;28;20175;-81
2022/10/20 10:55:13;;;;;;;5.33;4.00;;;;;;;;;;6624101;28;20179;-81
2022/10/20 10:58:29;;;;;;;6.23;3.77;;;;;;;;;;6571746;28;20296;-81
2022/10/20 11:01:58;;;;;;;4.83;3.97;;;;;;;;;;6572255;28;20197;-81
2022/10/20 11:05:19;;;;;;;8.70;5.30;;;;;;;;;;6571634;28;20220;-81
2022/10/20 11:08:51;;;;;;;4.50;4.00;;;;;;;;;;6571887;28;20232;-81
2022/10/20 11:12:10;;;;;;;4.90;4.40;;;;;;;;;;6572493;28;20514;-81
2022/10/20 11:15:30;;;;;;;4.60;4.10;;;;;;;;;;6571876;28;20311;-81
2022/10/20 11:18:54;;;;;;;3.43;3.13;;;;;;;;;;6571076;28;20169;-81
2022/10/20 11:22:07;;;;;;;3.97;3.00;;;;;;;;;;6572158;28;20203;-81
2022/10/20 11:25:25;;;;;;;2.53;2.33;;;;;;;;;;6571756;28;20544;-81
2022/10/20 11:28:43;;;;;;;2.40;2.13;;;;;;;;;;6571803;28;20189;-81
2022/10/20 11:31:56;;;;;;;3.10;2.77;;;;;;;;;;6572003;28;20170;-81
2022/10/20 11:35:13;;;;;;;2.93;2.53;;;;;;;;;;6571522;28;20194;-81
2022/10/20 11:38:23;;;;;;;3.07;2.43;;;;;;;;;;6571986;28;20161;-81
2022/10/20 11:41:39;;;;;;;3.00;2.70;;;;;;;;;;6571009;28;20196;-81
2022/10/20 11:44:51;;;;;;;4.23;2.60;;;;;;;;;;6570976;28;20185;-81
2022/10/20 11:48:19;;;;;;;2.90;2.30;;;;;;;;;;6570531;28;20173;-81
2022/10/20 11:51:30;;;;;;;2.40;2.20;;;;;;;;;;6571113;28;20327;-81
2022/10/20 11:55:19;;;;;;;2.47;2.27;;;;;;;;;;6571510;28;20172;-82
2022/10/20 11:58:52;;;;;;;5.00;1.73;;;;;;;;;;6517141;28;20691;-82
2022/10/20 12:02:08;;;;;;;1.83;1.73;;;;;;;;;;6535647;28;20271;-82
2022/10/20 12:05:44;;;;;;;2.40;2.20;;;;;;;;;;6622424;28;20164;-81
2022/10/20 12:08:57;;;;;;;2.30;2.10;;;;;;;;;;6623346;28;20499;-82
2022/10/20 12:12:14;;;;;;;3.03;2.40;;;;;;;;;;6604455;28;20179;-82
2022/10/20 12:15:26;;;;;;;2.70;2.50;;;;;;;;;;6621936;28;20164;-82
2022/10/20 12:18:37;;;;;;;2.93;2.60;;;;;;;;;;6621460;28;20191;-82
2022/10/20 12:21:59;;;;;;;2.77;2.40;;;;;;;;;;6622259;28;20204;-82
2022/10/20 12:25:09;;;;;;;2.47;2.27;;;;;;;;;;6622370;28;20508;-82
2022/10/20 12:28:21;;;;;;;4.90;2.43;;;;;;;;;;6621896;28;20263;-82
2022/10/20 12:31:50;;;;;;;2.97;2.70;;;;;;;;;;6621812;28;20525;-82
2022/10/20 12:35:02;;;;;;;3.33;2.70;;;;;;;;;;6621448;28;20176;-81
2022/10/20 12:38:15;;;;;;;3.53;2.73;;;;;;;;;;6621574;28;20255;-82
2022/10/20 12:41:33;;;;;;;2.40;2.20;;;;;;;;;;6621767;28;20290;-81
2022/10/20 12:44:44;;;;;;;2.37;2.20;;;;;;;;;;6622022;28;20176;-82
2022/10/20 12:47:59;;;;;;;2.57;2.37;;;;;;;;;;6621620;28;20175;-85
2022/10/20 12:51:29;;;;;;;1.87;1.73;;;;;;;;;;6621541;28;20210;-86
2022/10/20 12:54:40;;;;;;;2.67;2.13;;;;;;;;;;6607275;28;20179;-82
2022/10/20 12:58:08;;;;;;;2.10;2.00;;;;;;;;;;6620908;28;20231;-82
2022/10/20 13:01:18;;;;;;;1.57;1.40;;;;;;;;;;6621079;28;20196;-82
2022/10/20 13:04:47;;;;;;;2.43;2.10;;;;;;;;;;6622224;28;20210;-81
2022/10/20 13:07:58;;;;;;;3.93;3.33;;;;;;;;;;6620978;28;20213;-82
2022/10/20 13:11:44;;;;;;;7.43;5.33;;;;;;;;;;6621267;28;20179;-82
2022/10/20 13:15:00;;;;;;;6.97;5.27;;;;;;;;;;6523090;28;20193;-83
2022/10/20 13:18:11;;;;;;;7.90;4.03;;;;;;;;;;6621623;28;20263;-81
2022/10/20 13:21:24;;;;;;;5.73;4.47;;;;;;;;;;6621384;28;20735;-81
2022/10/20 13:24:35;;;;;;;4.07;2.83;;;;;;;;;;6621804;28;20203;-80
2022/10/20 13:27:47;;;;;;;3.83;3.07;;;;;;;;;;6621430;28;20231;-83
2022/10/20 13:31:00;;;;;;;3.30;3.00;;;;;;;;;;6625790;28;20520;-83
2022/10/20 13:34:19;;;;;;;3.80;3.10;;;;;;;;;;6626861;28;20689;-82
2022/10/20 13:37:30;;;;;;;3.57;3.10;;;;;;;;;;6626086;28;20168;-83
2022/10/20 13:40:43;;;;;;;2.87;2.67;;;;;;;;;;6625244;28;20559;-84
2022/10/20 13:43:53;;;;;;;4.20;3.40;;;;;;;;;;6625155;28;20206;-83
2022/10/20 13:47:07;;;;;;;3.03;2.73;;;;;;;;;;6608638;28;20540;-82
2022/10/20 13:50:28;;;;;;;3.00;2.67;;;;;;;;;;6625446;28;20628;-82
2022/10/20 13:53:41;;;;;;;4.47;3.50;;;;;;;;;;6607154;28;20643;-83
2022/10/20 13:56:51;;;;;;;4.20;3.20;;;;;;;;;;6606878;28;20238;-82
2022/10/20 14:00:14;;;;;;;3.60;3.10;;;;;;;;;;6624794;28;20667;-82
2022/10/20 14:03:25;;;;;;;3.40;3.10;;;;;;;;;;6607190;28;20179;-83
2022/10/20 14:06:36;;;;;;;4.43;3.60;;;;;;;;;;6625906;28;20171;-82
2022/10/20 14:09:55;;;;;;;3.97;3.37;;;;;;;;;;6625465;28;20207;-83
2022/10/20 14:13:10;;;;;;;3.20;2.90;;;;;;;;;;6625470;28;20203;-83
2022/10/20 14:16:22;;;;;;;5.00;3.60;;;;;;;;;;6624827;28;20172;-83
2022/10/20 14:19:33;;;;;;;3.73;3.20;;;;;;;;;;6607440;28;20612;-83
2022/10/20 14:22:43;;;;;;;3.93;3.37;;;;;;;;;;6624923;28;20310;-83
2022/10/20 14:25:54;;;;;;;3.53;3.20;;;;;;;;;;6625283;28;20616;-83
2022/10/20 14:29:05;;;;;;;4.70;3.10;;;;;;;;;;6625197;28;20167;-83
2022/10/20 14:32:20;;;;;;;2.90;2.70;;;;;;;;;;6625013;28;20690;-83
2022/10/20 14:35:38;;;;;;;4.33;3.80;;;;;;;;;;6625015;28;20179;-83
2022/10/20 14:38:50;;;;;;;3.93;3.27;;;;;;;;;;6624422;28;20160;-83
2022/10/20 14:42:02;;;;;;;4.23;3.10;;;;;;;;;;6623067;28;20223;-82
2022/10/20 14:45:20;;;;;;;3.70;3.37;;;;;;;;;;6623773;28;20171;-83
2022/10/20 14:48:32;;;;;;;3.53;3.03;;;;;;;;;;6624094;28;20172;-83
2022/10/20 14:51:59;;;;;;;4.27;3.40;;;;;;;;;;6606040;28;20275;-83
2022/10/20 14:55:28;;;;;;;11.43;8.30;;;;;;;;;;6624591;28;20183;-83
2022/10/20 14:58:58;;;;;;;14.60;10.17;;;;;;;;;;6623754;28;20203;-83
2022/10/20 15:02:12;;;;;;;8.23;5.60;;;;;;;;;;6623713;28;20199;-84
2022/10/20 15:05:25;;;;;;;7.63;6.83;;;;;;;;;;6623600;28;20514;-83
2022/10/20 15:08:35;;;;;;;10.63;8.63;;;;;;;;;;6623246;28;20254;-84
2022/10/20 15:11:46;;;;;;;9.53;7.50;;;;;;;;;;6605604;28;20179;-84
2022/10/20 15:15:06;;;;;;;17.27;13.27;;;;;;;;;;6623104;28;20175;-84
2022/10/20 15:18:19;;;;;;;14.93;10.20;;;;;;;;;;6623342;28;20168;-84
2022/10/20 15:21:29;;;;;;;12.30;8.40;;;;;;;;;;6623197;28;20200;-84
2022/10/20 15:24:40;;;;;;;10.90;8.33;;;;;;;;;;6622975;28;20702;-84
2022/10/20 15:27:50;;;;;;;11.23;7.03;;;;;;;;;;6605098;28;20223;-83
2022/10/20 15:31:02;;;;;;;10.60;8.07;;;;;;;;;;6622813;28;20172;-83
2022/10/20 15:34:12;;;;;;;13.80;8.87;;;;;;;;;;6622039;28;20221;-83
2022/10/20 15:37:22;;;;;;;15.93;9.43;;;;;;;;;;6619727;28;20945;-83
2022/10/20 15:40:32;;;;;;;20.93;11.90;;;;;;;;;;6620186;28;20198;-85
2022/10/20 15:43:43;;;;;;;25.10;13.80;;;;;;;;;;6619984;28;20679;-85
2022/10/20 15:46:56;;;;;;;12.90;8.63;;;;;;;;;;6619784;28;20168;-85
2022/10/20 15:50:06;;;;;;;13.47;9.70;;;;;;;;;;6620111;28;20510;-85
2022/10/20 15:53:17;;;;;;;14.17;11.10;;;;;;;;;;6619708;28;20171;-84
2022/10/20 15:56:27;;;;;;;25.60;17.00;;;;;;;;;;6621706;28;20234;-84
2022/10/20 15:59:37;;;;;;;32.03;19.30;;;;;;;;;;6621458;28;20191;-84
2022/10/20 16:02:48;;;;;;;34.20;19.60;;;;;;;;;;6603996;28;20528;-84
2022/10/20 16:05:58;;;;;;;26.37;16.20;;;;;;;;;;6622953;28;20163;-84
2022/10/20 16:09:08;;;;;;;52.53;34.87;;;;;;;;;;6621839;28;20176;-83
2022/10/20 16:12:19;;;;;;;219.70;125.60;;;;;;;;;;6622512;28;20202;-82
2022/10/20 16:15:29;;;;;;;277.27;165.93;;;;;;;;;;6604359;28;20627;-83
2022/10/20 16:18:40;;;;;;;583.53;254.57;;;;;;;;;;6621831;28;20164;-83
2022/10/20 16:21:50;;;;;;;104.27;54.03;;;;;;;;;;6622341;28;20207;-82
2022/10/20 16:25:01;;;;;;;46.73;30.10;;;;;;;;;;6622340;28;20179;-82
2022/10/20 16:28:11;;;;;;;31.60;22.50;;;;;;;;;;6622442;28;20210;-82
2022/10/20 16:31:21;;;;;;;29.57;19.13;;;;;;;;;;6621550;28;20519;-82
2022/10/20 16:34:32;;;;;;;33.17;22.37;;;;;;;;;;6622606;28;20214;-83
2022/10/20 16:37:42;;;;;;;31.33;19.33;;;;;;;;;;6621548;28;20168;-83
2022/10/20 16:40:59;;;;;;;27.37;18.30;;;;;;;;;;6621314;28;20199;-84
2022/10/20 16:44:10;;;;;;;22.23;15.30;;;;;;;;;;6621773;28;20163;-84
2022/10/20 16:47:20;;;;;;;29.17;18.40;;;;;;;;;;6621818;28;20232;-83
2022/10/20 16:50:30;;;;;;;36.90;23.07;;;;;;;;;;6621572;28;20476;-83
2022/10/20 16:53:41;;;;;;;47.80;29.27;;;;;;;;;;6621490;28;20168;-83
2022/10/20 16:56:51;;;;;;;60.17;37.43;;;;;;;;;;6603440;28;20232;-83
2022/10/20 17:00:02;;;;;;;36.93;24.70;;;;;;;;;;6603426;28;20211;-83
2022/10/20 17:03:12;;;;;;;44.20;30.40;;;;;;;;;;6622030;28;20171;-83
2022/10/20 17:06:24;;;;;;;56.97;34.37;;;;;;;;;;6626666;28;20582;-83
2022/10/20 17:09:34;;;;;;;53.40;31.33;;;;;;;;;;6626527;28;20176;-83
2022/10/20 17:12:47;;;;;;;41.80;27.03;;;;;;;;;;6626301;28;20207;-82
2022/10/20 17:16:09;;;;;;;45.53;28.10;;;;;;;;;;6626019;28;20583;-83
2022/10/20 17:19:19;;;;;;;46.67;31.53;;;;;;;;;;6626310;28;20167;-83
2022/10/20 17:22:29;;;;;;;105.90;55.70;;;;;;;;;;6626028;28;20192;-83
2022/10/20 17:25:40;;;;;;;70.33;41.70;;;;;;;;;;6625809;28;20164;-83
2022/10/20 17:28:52;;;;;;;67.50;40.90;;;;;;;;;;6626773;28;20504;-83
2022/10/20 17:32:02;;;;;;;66.23;39.60;;;;;;;;;;6626499;28;20180;-83
2022/10/20 17:35:13;;;;;;;54.67;35.17;;;;;;;;;;6626163;28;20191;-83
2022/10/20 17:38:24;;;;;;;63.33;41.37;;;;;;;;;;6625722;28;20282;-83
2022/10/20 17:41:35;;;;;;;62.00;38.60;;;;;;;;;;6625807;28;20273;-83
2022/10/20 17:44:45;;;;;;;74.03;44.63;;;;;;;;;;6624945;28;20171;-83
2022/10/20 17:47:57;;;;;;;39.03;26.17;;;;;;;;;;6625701;28;20211;-82
2022/10/20 17:51:09;;;;;;;48.43;29.60;;;;;;;;;;6625472;28;20508;-82
2022/10/20 17:54:21;;;;;;;49.30;28.97;;;;;;;;;;6625841;28;20164;-81
2022/10/20 17:57:32;;;;;;;47.87;29.37;;;;;;;;;;6624650;28;20239;-82
2022/10/20 18:00:43;;;;;;;47.63;27.47;;;;;;;;;;6625448;28;20218;-82
2022/10/20 18:03:55;;;;;;;45.40;27.13;;;;;;;;;;6607173;28;20180;-82
2022/10/20 18:07:06;;;;;;;41.23;25.33;;;;;;;;;;6624534;28;20191;-83
2022/10/20 18:10:16;;;;;;;49.23;29.10;;;;;;;;;;6606668;28;20211;-84
2022/10/20 18:13:26;;;;;;;61.37;33.63;;;;;;;;;;6624843;28;20497;-84
2022/10/20 18:16:38;;;;;;;57.93;31.73;;;;;;;;;;6624293;28;20175;-83
2022/10/20 18:19:48;;;;;;;54.50;29.47;;;;;;;;;;6624477;28;20176;-84
2022/10/20 18:22:59;;;;;;;47.77;26.27;;;;;;;;;;6624823;28;20171;-83
2022/10/20 18:26:10;;;;;;;45.03;26.40;;;;;;;;;;6624685;28;20168;-83
2022/10/20 18:29:24;;;;;;;56.30;33.17;;;;;;;;;;6624513;28;20175;-82
2022/10/20 18:32:35;;;;;;;58.63;34.40;;;;;;;;;;6623974;28;20284;-82
2022/10/20 18:35:45;;;;;;;62.00;35.63;;;;;;;;;;6624004;28;20628;-82
2022/10/20 18:38:55;;;;;;;49.93;29.40;;;;;;;;;;6625388;28;20509;-82
2022/10/20 18:42:06;;;;;;;41.63;24.23;;;;;;;;;;6624503;28;20199;-82
2022/10/20 18:45:19;;;;;;;35.30;21.87;;;;;;;;;;6623851;28;20203;-83
2022/10/20 18:48:30;;;;;;;33.90;20.33;;;;;;;;;;6623574;28;20168;-83
2022/10/20 18:51:40;;;;;;;39.50;21.67;;;;;;;;;;6623933;28;20182;-82
2022/10/20 18:54:51;;;;;;;39.00;22.57;;;;;;;;;;6623408;28;20628;-83
2022/10/20 18:58:01;;;;;;;40.37;23.50;;;;;;;;;;6622897;28;20377;-83
2022/10/20 19:01:13;;;;;;;44.67;24.87;;;;;;;;;;6623591;28;20203;-82